Time;durP1;ratioP1;P1;durP2;ratioP2;P2;SDS_P1;SDS_P2;PMS_P1;PMS_P2;Temp;Humidity;BMP_temperature;BMP_pressure;BME280_temperature;BME280_humidity;BME280_pressure;Samples;Min_cycle;Max_cycle;Signal;HPM_P1;HPM_P2
2022/05/26 00:01:05;;;;;;;;;2.50;1.50;;;;;17.83;58.55;101706.94;5132217;27;45273;-82
2022/05/26 00:03:42;;;;;;;;;1.25;1.25;;;;;17.72;58.70;101690.72;5132244;27;45482;-81
2022/05/26 00:06:13;;;;;;;;;0.50;0.50;;;;;17.64;58.75;101668.44;5132507;27;45278;-80
2022/05/26 00:08:39;;;;;;;;;1.50;1.50;;;;;17.42;58.60;101644.03;5132496;27;44668;-80
2022/05/26 00:11:08;;;;;;;;;1.50;0.75;;;;;17.72;59.29;101693.38;5119094;27;45162;-84
2022/05/26 00:13:35;;;;;;;;;1.25;1.00;;;;;17.77;58.83;101707.72;5111965;27;45390;-83
2022/05/26 00:16:01;;;;;;;;;1.00;0.75;;;;;17.52;59.30;101655.75;5110933;27;45262;-86
2022/05/26 00:18:27;;;;;;;;;0.75;0.50;;;;;17.62;58.76;101686.09;5112100;27;45091;-81
2022/05/26 00:20:52;;;;;;;;;2.25;1.50;;;;;17.66;59.03;101687.97;5111218;27;45179;-82
2022/05/26 00:23:17;;;;;;;;;0.50;0.50;;;;;17.39;59.06;101645.72;5111657;27;45327;-81
2022/05/26 00:25:43;;;;;;;;;0.50;0.50;;;;;17.35;59.47;101638.59;5115103;27;45122;-82
2022/05/26 00:28:08;;;;;;;;;1.75;1.50;;;;;17.51;59.51;101673.47;5132417;27;45102;-83
2022/05/26 00:30:34;;;;;;;;;0.50;0.50;;;;;17.52;59.33;101675.25;5132316;27;45240;-86
2022/05/26 00:33:00;;;;;;;;;1.00;0.50;;;;;17.66;59.71;101695.94;5131007;27;45667;-82
2022/05/26 00:35:26;;;;;;;;;1.00;0.50;;;;;17.45;59.25;101645.88;5132781;27;44926;-83
2022/05/26 00:37:51;;;;;;;;;1.00;1.00;;;;;17.74;59.64;101697.94;5132349;27;45155;-84
2022/05/26 00:40:18;;;;;;;;;1.00;1.00;;;;;17.51;59.17;101659.28;5131962;27;44973;-79
2022/05/26 00:42:44;;;;;;;;;0.50;0.50;;;;;17.36;59.08;101635.06;5131913;27;45785;-81
2022/05/26 00:45:10;;;;;;;;;0.75;0.75;;;;;17.53;59.50;101663.75;5131900;27;45086;-82
2022/05/26 00:47:44;;;;;;;;;1.25;1.00;;;;;17.39;59.64;101637.75;5131268;27;44992;-79
2022/05/26 00:50:18;;;;;;;;;0.75;0.75;;;;;17.59;59.60;101681.63;5132052;27;45225;-80
2022/05/26 00:52:51;;;;;;;;;0.50;0.50;;;;;17.60;59.64;101678.09;5113205;27;46117;-84
2022/05/26 00:55:46;;;;;;;;;1.00;1.00;;;;;17.59;59.54;101676.31;5132118;27;45571;-80
2022/05/26 00:58:24;;;;;;;;;1.50;1.25;;;;;17.50;59.42;101665.47;5129948;27;45090;-85
2022/05/26 01:00:50;;;;;;;;;3.00;2.00;;;;;17.66;59.67;101704.81;5130969;27;45164;-85
2022/05/26 01:03:30;;;;;;;;;0.50;0.50;;;;;17.63;60.12;101704.72;5131977;27;45840;-84
2022/05/26 01:06:18;;;;;;;;;2.50;2.00;;;;;17.30;60.09;101657.09;5131497;27;45197;-83
2022/05/26 01:08:57;;;;;;;;;1.00;1.00;;;;;17.53;60.00;101706.28;5131516;27;44996;-81
2022/05/26 01:11:24;;;;;;;;;2.00;1.25;;;;;17.39;60.18;101699.81;5115743;27;45212;-81
2022/05/26 01:13:55;;;;;;;;;1.00;1.00;;;;;17.16;60.49;101663.84;5110368;27;45994;-82
2022/05/26 01:16:40;;;;;;;;;3.25;1.75;;;;;17.37;60.47;101714.81;5124328;27;45250;-82
2022/05/26 01:19:27;;;;;;;;;1.25;1.25;;;;;17.29;60.60;101716.41;5131647;27;45201;-83
2022/05/26 01:22:02;;;;;;;;;2.00;1.25;;;;;17.08;60.78;101682.25;5130847;27;45282;-86
2022/05/26 01:24:33;;;;;;;;;2.00;2.00;;;;;17.25;60.94;101710.13;5131424;27;45398;-83
2022/05/26 01:27:21;;;;;;;;;2.75;2.00;;;;;17.22;60.75;101733.94;5131033;27;45146;-84
2022/05/26 01:30:16;;;;;;;;;1.50;1.00;;;;;17.16;60.86;101717.88;5112904;27;45303;-86
2022/05/26 01:33:06;;;;;;;;;1.00;1.00;;;;;17.13;61.14;101717.78;5115701;27;45617;-86
2022/05/26 01:35:31;;;;;;;;;1.75;1.75;;;;;17.12;60.97;101716.00;5112991;27;46962;-84
2022/05/26 01:38:09;;;;;;;;;1.00;1.00;;;;;17.09;61.11;101715.03;5131016;27;45209;-84
2022/05/26 01:40:52;;;;;;;;;1.25;1.25;;;;;16.94;61.58;101691.66;5130996;27;45099;-85
2022/05/26 01:43:44;;;;;;;;;2.75;2.75;;;;;17.11;61.26;101716.88;5112940;27;45258;-81
2022/05/26 01:46:29;;;;;;;;;1.00;1.00;;;;;17.11;61.29;101722.19;5111365;27;47604;-81
2022/05/26 01:49:21;;;;;;;;;2.00;1.75;;;;;17.01;60.86;101705.13;5131056;27;45185;-86
2022/05/26 01:51:53;;;;;;;;;1.75;1.00;;;;;17.13;61.21;101728.41;5129707;27;45111;-82
2022/05/26 01:54:30;;;;;;;;;2.00;1.00;;;;;17.16;61.61;101727.59;5120262;27;45227;-84
2022/05/26 01:57:07;;;;;;;;;0.50;0.50;;;;;16.39;60.81;101589.44;5121641;27;46899;-83
2022/05/26 01:59:40;;;;;;;;;0.00;0.00;;;;;16.92;61.54;101665.06;5124627;27;45252;-82
2022/05/26 02:02:12;;;;;;;;;1.75;1.75;;;;;17.03;60.72;101676.84;5115457;27;45230;-82
2022/05/26 02:04:43;;;;;;;;;1.50;1.00;;;;;16.92;61.00;101653.56;5115729;27;45278;-84
2022/05/26 02:07:18;;;;;;;;;1.00;1.00;;;;;16.72;60.77;101616.81;5116837;27;45957;-84
2022/05/26 02:09:44;;;;;;;;;2.25;2.00;;;;;17.16;60.90;101695.72;5119054;27;45536;-81
2022/05/26 02:12:33;;;;;;;;;2.00;1.00;;;;;17.29;61.07;101727.03;5121848;27;45211;-82
2022/05/26 02:15:20;;;;;;;;;1.00;1.00;;;;;17.21;60.82;101710.00;5120654;27;45150;-84
2022/05/26 02:17:56;;;;;;;;;1.00;1.00;;;;;17.35;60.45;101723.63;5129784;27;46156;-83
2022/05/26 02:20:32;;;;;;;;;1.00;1.00;;;;;17.35;61.01;101727.16;5131588;27;45104;-85
2022/05/26 02:23:35;;;;;;;;;2.75;2.00;;;;;17.20;60.63;101694.94;5131130;27;45227;-82
2022/05/26 02:26:02;;;;;;;;;1.00;1.00;;;;;16.91;60.18;101647.34;5117346;27;45974;-83
2022/05/26 02:29:50;;;;;;;;;1.75;1.00;;;;;17.09;60.43;101689.34;5132049;27;45929;-84
2022/05/26 02:31:18;;;;;;;;;1.25;1.00;;;;;17.09;60.29;101699.09;5130623;27;45669;-82
2022/05/26 02:33:44;;;;;;;;;1.75;1.75;;;;;17.11;60.65;101698.28;5112977;27;45209;-83
2022/05/26 02:36:10;;;;;;;;;1.00;1.00;;;;;17.21;60.44;101704.69;5112953;27;45171;-84
2022/05/26 02:38:35;;;;;;;;;0.00;0.00;;;;;17.15;60.48;101702.81;5112740;27;46320;-84
2022/05/26 02:41:01;;;;;;;;;1.00;1.00;;;;;17.10;60.45;101700.91;5112370;27;45095;-84
2022/05/26 02:43:30;;;;;;;;;2.00;1.00;;;;;17.23;60.57;101724.22;5131696;27;45133;-82
2022/05/26 02:46:14;;;;;;;;;1.75;1.00;;;;;17.22;60.21;101723.31;5111202;27;44962;-85
2022/05/26 02:48:51;;;;;;;;;1.00;0.00;;;;;17.19;60.33;101727.66;5131554;27;45280;-84
2022/05/26 02:51:34;;;;;;;;;0.50;0.50;;;;;17.14;60.13;101726.66;5112664;27;45185;-85
2022/05/26 02:54:15;;;;;;;;;1.00;1.00;;;;;17.09;60.38;101715.03;5131226;27;45228;-81
2022/05/26 02:56:43;;;;;;;;;1.00;1.00;;;;;17.06;60.85;101718.53;5130591;27;45217;-81
2022/05/26 02:59:58;;;;;;;;;0.00;0.00;;;;;16.98;60.85;101707.69;5111712;27;47545;-83
2022/05/26 03:02:39;;;;;;;;;0.00;0.00;;;;;16.83;60.51;101691.41;5093676;27;45457;-84
2022/05/26 03:05:12;;;;;;;;;1.00;1.00;;;;;16.93;60.70;101719.97;5112073;27;45242;-82
2022/05/26 03:07:42;;;;;;;;;1.00;1.00;;;;;16.88;60.98;101729.59;5112298;27;45099;-84
2022/05/26 03:10:08;;;;;;;;;1.50;1.50;;;;;16.64;61.22;101683.81;5125611;27;45917;-82
2022/05/26 03:12:35;;;;;;;;;1.00;1.00;;;;;16.66;61.14;101701.59;5110129;27;45187;-84
2022/05/26 03:15:03;;;;;;;;;0.75;0.75;;;;;16.72;61.20;101714.16;5109975;27;45172;-85
2022/05/26 03:17:28;;;;;;;;;1.50;1.50;;;;;16.52;61.70;101687.97;5109196;27;45369;-82
2022/05/26 03:19:54;;;;;;;;;1.00;1.00;;;;;16.66;61.71;101704.25;5109975;27;45354;-82
2022/05/26 03:22:20;;;;;;;;;1.75;1.00;;;;;16.82;61.71;101734.75;5109171;27;45268;-86
2022/05/26 03:24:46;;;;;;;;;0.75;0.50;;;;;16.59;61.70;101694.31;5110395;27;45322;-84
2022/05/26 03:27:11;;;;;;;;;0.00;0.00;;;;;16.81;61.52;101738.28;5110219;27;45151;-84
2022/05/26 03:29:37;;;;;;;;;1.00;1.00;;;;;16.73;62.12;101716.84;5112156;27;45775;-85
2022/05/26 03:32:03;;;;;;;;;0.75;0.00;;;;;16.66;62.00;101700.69;5112662;27;45127;-85
2022/05/26 03:42:43;;;;;;;;;1.00;1.00;;;;;16.51;61.35;101688.84;5113149;27;45650;-83
2022/05/26 03:45:09;;;;;;;;;0.50;0.00;;;;;16.74;60.97;101738.97;5113175;27;45347;-86
2022/05/26 03:47:34;;;;;;;;;1.00;0.50;;;;;16.85;61.21;101747.22;5113117;27;45098;-81
2022/05/26 03:50:00;;;;;;;;;0.00;0.00;;;;;16.74;61.85;101738.97;5113365;27;45762;-83
2022/05/26 03:52:25;;;;;;;;;0.50;0.50;;;;;16.74;61.62;101736.31;5113710;27;45105;-85
2022/05/26 03:54:50;;;;;;;;;1.50;1.00;;;;;16.56;61.84;101691.59;5113243;27;45354;-84
2022/05/26 03:57:24;;;;;;;;;0.25;0.25;;;;;16.77;61.69;101733.75;5113342;27;45096;-84
2022/05/26 03:59:49;;;;;;;;;0.00;0.00;;;;;16.60;61.33;101700.50;5113199;27;45396;-84
2022/05/26 04:02:15;;;;;;;;;1.00;1.00;;;;;16.61;61.38;101707.66;5114469;27;45247;-84
2022/05/26 04:04:40;;;;;;;;;0.00;0.00;;;;;16.52;61.27;101690.63;5113285;27;45126;-84
2022/05/26 04:07:05;;;;;;;;;0.00;0.00;;;;;16.98;61.23;101762.59;5112806;27;45278;-83
2022/05/26 04:09:30;;;;;;;;;0.25;0.25;;;;;16.68;61.15;101702.50;5113665;27;45794;-81
2022/05/26 04:11:56;;;;;;;;;0.75;0.75;;;;;17.00;61.10;101756.47;5121640;27;45129;-82
2022/05/26 04:14:21;;;;;;;;;0.00;0.00;;;;;16.73;61.49;101719.50;5133693;27;45066;-85
2022/05/26 04:16:46;;;;;;;;;0.00;0.00;;;;;16.71;60.81;101718.56;5132947;27;45107;-84
2022/05/26 04:19:12;;;;;;;;;1.50;0.50;;;;;16.70;61.09;101716.75;5133209;27;45056;-83
2022/05/26 04:22:14;;;;;;;;;0.00;0.00;;;;;16.68;60.86;101717.53;5120265;27;45327;-82
2022/05/26 04:24:22;;;;;;;;;0.00;0.00;;;;;16.76;61.15;101729.31;5111965;27;45157;-83
2022/05/26 04:26:48;;;;;;;;;1.25;0.00;;;;;16.73;60.48;101726.56;5111918;27;45191;-83
2022/05/26 04:29:16;;;;;;;;;1.00;1.00;;;;;16.84;61.13;101740.09;5111567;27;45722;-85
2022/05/26 04:31:41;;;;;;;;;0.00;0.00;;;;;16.84;60.48;101734.78;5109924;27;45180;-84
2022/05/26 04:34:07;;;;;;;;;0.00;0.00;;;;;16.97;60.47;101763.44;5108858;27;45106;-86
2022/05/26 04:36:32;;;;;;;;;1.00;1.00;;;;;16.85;60.66;101736.59;5132224;27;45232;-84
2022/05/26 04:38:58;;;;;;;;;0.00;0.00;;;;;16.93;60.94;101757.16;5132317;27;45263;-86
2022/05/26 04:41:23;;;;;;;;;1.00;0.50;;;;;16.89;60.85;101762.34;5123177;27;45225;-84
2022/05/26 04:43:48;;;;;;;;;0.25;0.25;;;;;16.77;60.77;101739.06;5125618;27;45064;-85
2022/05/26 04:46:17;;;;;;;;;1.00;1.00;;;;;16.90;61.26;101767.72;5113464;27;45109;-85
2022/05/26 04:48:43;;;;;;;;;1.00;1.00;;;;;16.92;60.89;101763.34;5131925;27;45781;-84
2022/05/26 04:51:08;;;;;;;;;1.00;0.75;;;;;16.88;60.98;101764.09;5130987;27;45081;-85
2022/05/26 04:53:33;;;;;;;;;1.25;1.00;;;;;17.03;61.25;101798.13;5129921;27;45222;-86
2022/05/26 04:55:59;;;;;;;;;1.00;1.00;;;;;17.15;61.58;101813.50;5130671;27;45065;-85
2022/05/26 04:58:24;;;;;;;;;1.00;0.75;;;;;17.16;61.47;101802.88;5112071;27;45982;-85
2022/05/26 05:00:50;;;;;;;;;1.00;1.00;;;;;16.97;60.86;101774.97;5124150;27;45197;-86
2022/05/26 05:03:15;;;;;;;;;2.00;1.00;;;;;16.93;61.23;101764.22;5127112;27;45433;-86
2022/05/26 05:05:40;;;;;;;;;1.00;1.00;;;;;16.93;61.46;101767.78;5131439;27;45541;-84
2022/05/26 05:08:06;;;;;;;;;2.00;1.50;;;;;17.09;61.63;101786.75;5131420;27;45287;-86
2022/05/26 05:10:32;;;;;;;;;1.75;1.75;;;;;17.24;61.58;101805.72;5110330;27;45127;-84
2022/05/26 05:12:59;;;;;;;;;1.00;1.00;;;;;16.98;61.63;101757.28;5120082;27;45292;-81
2022/05/26 05:15:32;;;;;;;;;0.00;0.00;;;;;17.33;61.38;101819.22;5111028;27;45039;-85
2022/05/26 05:17:58;;;;;;;;;2.75;2.00;;;;;17.14;61.75;101782.44;5109612;27;45978;-85
2022/05/26 05:20:23;;;;;;;;;1.00;1.00;;;;;17.02;61.11;101757.38;5110721;27;45437;-86
2022/05/26 05:23:03;;;;;;;;;1.00;1.00;;;;;17.09;61.21;101777.00;5079662;27;1140989;-80
2022/05/26 05:25:38;;;;;;;;;2.75;2.75;;;;;17.01;61.37;101757.34;5114398;27;45084;-84
2022/05/26 05:28:12;;;;;;;;;0.75;0.75;;;;;17.37;60.82;101826.41;5111280;27;45413;-84
2022/05/26 05:30:49;;;;;;;;;2.00;2.00;;;;;17.09;60.72;101789.41;5093910;27;45166;-86
2022/05/26 05:33:21;;;;;;;;;1.00;1.00;;;;;17.23;61.18;101811.91;5121246;27;45405;-86
2022/05/26 05:35:50;;;;;;;;;1.00;1.00;;;;;17.34;61.04;101830.75;5132165;27;45240;-84
2022/05/26 05:38:17;;;;;;;;;1.00;1.00;;;;;17.38;61.33;101838.84;5132536;27;46637;-85
2022/05/26 05:40:42;;;;;;;;;1.00;1.00;;;;;17.15;60.70;101785.16;5132217;27;45213;-82
2022/05/26 05:43:08;;;;;;;;;0.25;0.25;;;;;17.41;60.97;101828.28;5132047;27;45062;-83
2022/05/26 05:45:33;;;;;;;;;1.75;1.75;;;;;17.34;61.13;101809.50;5132571;27;45153;-84
2022/05/26 05:47:59;;;;;;;;;1.00;0.25;;;;;17.39;61.00;101811.41;5131692;27;45815;-86
2022/05/26 05:50:24;;;;;;;;;2.00;1.25;;;;;17.23;60.83;101780.00;5132004;27;45107;-85
2022/05/26 05:52:49;;;;;;;;;0.00;0.00;;;;;17.48;60.48;101827.56;5131320;27;44965;-84
2022/05/26 05:55:15;;;;;;;;;1.00;0.75;;;;;17.31;60.86;101796.16;5114237;27;45178;-83
2022/05/26 05:57:40;;;;;;;;;1.00;1.00;;;;;17.27;61.17;101796.06;5113783;27;47386;-82
2022/05/26 06:00:07;;;;;;;;;1.00;1.00;;;;;17.59;60.27;101842.91;5131734;27;45292;-85
2022/05/26 06:02:32;;;;;;;;;0.50;0.25;;;;;17.47;60.06;101814.25;5132279;27;45112;-87
2022/05/26 06:04:57;;;;;;;;;1.00;1.00;;;;;17.46;60.62;101821.31;5132293;27;45153;-83
2022/05/26 06:07:23;;;;;;;;;1.00;1.00;;;;;17.54;59.94;101825.06;5132526;27;46243;-83
2022/05/26 06:09:50;;;;;;;;;1.75;1.00;;;;;17.44;60.00;101817.75;5131548;27;45051;-83
2022/05/26 06:12:16;;;;;;;;;1.00;0.25;;;;;17.43;60.20;101828.31;5131675;27;45269;-82
2022/05/26 06:14:42;;;;;;;;;2.00;2.00;;;;;17.60;60.29;101852.66;5118798;27;45176;-84
2022/05/26 06:17:08;;;;;;;;;1.50;1.50;;;;;17.43;60.19;101826.56;5110445;27;45556;-85
2022/05/26 06:19:38;;;;;;;;;0.00;0.00;;;;;17.65;59.83;101861.63;5110635;27;45224;-82
2022/05/26 06:22:22;;;;;;;;;1.00;0.00;;;;;17.27;59.91;101808.47;5110685;27;45397;-84
2022/05/26 06:24:49;;;;;;;;;1.00;1.00;;;;;17.28;60.28;101805.81;5092388;27;45220;-82
2022/05/26 06:30:06;;;;;;;;;2.00;1.25;;;;;17.66;60.30;101880.28;5111096;27;45296;-82
2022/05/26 06:38:10;;;;;;;;;0.50;0.00;;;;;17.63;59.55;101869.56;5110413;27;45717;-85
2022/05/26 06:40:39;;;;;;;;;0.00;0.00;;;;;17.41;59.93;101833.59;5110674;27;45055;-84
2022/05/26 06:43:04;;;;;;;;;1.00;1.00;;;;;17.51;59.97;101850.69;5110130;27;45315;-84
2022/05/26 06:45:30;;;;;;;;;0.25;0.00;;;;;17.42;59.27;101837.16;5110708;27;45028;-84
2022/05/26 06:47:56;;;;;;;;;0.25;0.25;;;;;17.42;60.11;101846.03;5091574;27;47783;-83
2022/05/26 06:50:21;;;;;;;;;2.25;2.25;;;;;17.59;60.33;101872.13;5110239;27;45505;-85
2022/05/26 06:52:46;;;;;;;;;0.25;0.00;;;;;17.46;59.84;101850.56;5109951;27;45206;-85
2022/05/26 06:55:12;;;;;;;;;0.00;0.00;;;;;17.71;59.70;101885.72;5110291;27;44983;-81
2022/05/26 06:57:37;;;;;;;;;0.00;0.00;;;;;17.53;59.79;101854.25;5109663;27;45877;-84
2022/05/26 07:00:06;;;;;;;;;0.25;0.00;;;;;17.84;59.39;101894.91;5109799;27;44930;-83
2022/05/26 07:02:32;;;;;;;;;0.00;0.00;;;;;17.69;59.74;101847.56;5110058;27;45174;-85
2022/05/26 07:04:58;;;;;;;;;1.00;0.00;;;;;17.77;59.64;101840.66;5110219;27;45163;-81
2022/05/26 07:07:27;;;;;;;;;0.50;0.00;;;;;18.15;58.85;101902.72;5110299;27;46040;-83
2022/05/26 07:09:56;;;;;;;;;0.00;0.00;;;;;18.18;58.63;101907.22;5113384;27;45185;-85
2022/05/26 07:12:23;;;;;;;;;0.00;0.00;;;;;18.26;58.58;101916.25;5130607;27;45122;-86
2022/05/26 07:14:48;;;;;;;;;0.00;0.00;;;;;18.36;58.75;101914.69;5130994;27;45020;-85
2022/05/26 07:17:13;;;;;;;;;0.00;0.00;;;;;18.08;58.08;101870.59;5129717;27;45073;-82
2022/05/26 07:19:39;;;;;;;;;0.00;0.00;;;;;18.09;58.09;101885.72;5130294;27;45051;-82
2022/05/26 07:22:05;;;;;;;;;0.00;0.00;;;;;18.24;58.37;101920.66;5130272;27;45195;-85
2022/05/26 07:24:30;;;;;;;;;0.00;0.00;;;;;18.04;58.29;101902.47;5130322;27;45129;-84
2022/05/26 07:26:55;;;;;;;;;0.00;0.00;;;;;17.91;58.52;101873.81;5129956;27;45817;-82
2022/05/26 07:29:21;;;;;;;;;0.00;0.00;;;;;18.30;57.80;101934.97;5130967;27;45271;-84
2022/05/26 07:31:46;;;;;;;;;0.00;0.00;;;;;18.07;57.79;101898.09;5110972;27;45031;-84
2022/05/26 07:34:12;;;;;;;;;0.00;0.00;;;;;18.26;57.44;101917.16;5130461;27;45007;-84
2022/05/26 07:42:11;;;;;;;;;0.00;0.00;;;;;18.54;57.04;101899.09;5129632;27;45204;-83
2022/05/26 07:44:40;;;;;;;;;0.00;0.00;;;;;18.60;56.01;101914.31;5130199;27;45160;-85
2022/05/26 07:47:07;;;;;;;;;0.25;0.25;;;;;18.72;56.69;101952.78;5129029;27;46167;-84
2022/05/26 07:49:42;;;;;;;;;0.00;0.00;;;;;18.44;57.14;101913.09;5130306;27;45353;-84
2022/05/26 07:52:08;;;;;;;;;0.00;0.00;;;;;18.49;58.05;101924.75;5130353;27;45183;-83
2022/05/26 07:54:34;;;;;;;;;0.00;0.00;;;;;18.54;58.26;101931.06;5110427;27;45235;-85
2022/05/26 07:57:01;;;;;;;;;0.00;0.00;;;;;18.55;57.74;101938.19;5109703;27;45671;-85
2022/05/26 07:59:27;;;;;;;;;0.00;0.00;;;;;18.47;57.79;101924.72;5110498;27;45467;-81
2022/05/26 08:01:52;;;;;;;;;0.00;0.00;;;;;18.57;57.37;101941.78;5089471;27;45443;-85
2022/05/26 08:04:18;;;;;;;;;0.00;0.00;;;;;18.43;57.67;101914.88;5109495;27;45095;-81
2022/05/26 08:06:46;;;;;;;;;0.00;0.00;;;;;18.53;57.72;101927.50;5109331;27;45341;-82
2022/05/26 08:09:13;;;;;;;;;0.00;0.00;;;;;18.81;58.00;101946.72;5091304;27;45209;-84
2022/05/26 08:11:38;;;;;;;;;0.00;0.00;;;;;18.85;57.35;101929.94;5127682;27;45198;-83
2022/05/26 08:14:03;;;;;;;;;0.00;0.00;;;;;19.21;57.84;101979.47;5130658;27;45282;-84
2022/05/26 08:16:29;;;;;;;;;0.75;0.00;;;;;19.23;57.85;101980.41;5133333;27;45696;-85
2022/05/26 08:18:54;;;;;;;;;0.00;0.00;;;;;18.96;57.57;101939.03;5133161;27;45342;-84
2022/05/26 08:21:20;;;;;;;;;0.75;0.00;;;;;18.75;58.09;101922.63;5115122;27;45110;-85
2022/05/26 08:23:45;;;;;;;;;0.00;0.00;;;;;18.95;58.53;101977.19;5133600;27;45003;-81
2022/05/26 08:26:11;;;;;;;;;0.00;0.00;;;;;18.91;59.09;101959.34;5132572;27;45713;-83
2022/05/26 08:28:37;;;;;;;;;0.00;0.00;;;;;19.13;58.66;101997.09;5133037;27;45318;-84
2022/05/26 08:31:02;;;;;;;;;0.75;0.75;;;;;19.02;58.86;101976.47;5132767;27;45128;-81
2022/05/26 08:33:28;;;;;;;;;0.00;0.00;;;;;19.18;58.13;101980.31;5132587;27;45114;-83
2022/05/26 08:36:07;;;;;;;;;0.00;0.00;;;;;19.13;57.58;101967.78;5114365;27;46189;-81
2022/05/26 08:38:33;;;;;;;;;0.00;0.00;;;;;19.06;57.57;101985.41;5121663;27;45133;-85
2022/05/26 08:41:00;;;;;;;;;0.00;0.00;;;;;19.08;56.92;101978.34;5111842;27;45152;-82
2022/05/26 08:43:48;;;;;;;;;0.00;0.00;;;;;19.11;57.26;101994.38;5112189;27;45206;-81
2022/05/26 08:46:17;;;;;;;;;0.00;0.00;;;;;18.81;57.39;101957.38;5111640;27;46160;-85
2022/05/26 08:48:59;;;;;;;;;0.00;0.00;;;;;19.18;57.20;102006.97;5111956;27;45179;-83
2022/05/26 08:51:47;;;;;;;;;0.00;0.00;;;;;19.25;56.95;101986.66;5111645;27;45271;-82
2022/05/26 08:54:22;;;;;;;;;0.00;0.00;;;;;19.62;57.08;102003.38;5117230;27;45219;-81
2022/05/26 08:56:48;;;;;;;;;0.00;0.00;;;;;19.45;56.26;101950.59;5132261;27;46341;-82
2022/05/26 08:59:15;;;;;;;;;0.50;0.00;;;;;19.76;55.16;101972.50;5114009;27;45248;-86
2022/05/26 09:01:40;;;;;;;;;0.00;0.00;;;;;19.87;54.90;101975.34;5131908;27;45091;-82
2022/05/26 09:04:06;;;;;;;;;0.00;0.00;;;;;19.97;54.75;101966.63;5132818;27;45209;-80
2022/05/26 09:12:55;;;;;;;;;0.00;0.00;;;;;20.26;53.29;101996.41;5132470;27;45371;-82
2022/05/26 09:14:54;;;;;;;;;0.00;0.00;;;;;19.79;53.28;101949.41;5110881;27;44910;-84
2022/05/26 09:17:19;;;;;;;;;1.00;0.00;;;;;20.00;53.31;101996.91;5109314;27;50689;-80
2022/05/26 09:19:44;;;;;;;;;0.00;0.00;;;;;20.08;53.63;102010.38;5111869;27;45091;-82
2022/05/26 09:22:30;;;;;;;;;0.00;0.00;;;;;20.22;53.57;102003.47;5110840;27;45427;-83
2022/05/26 09:24:57;;;;;;;;;0.00;0.00;;;;;20.10;52.98;101961.50;5092673;27;45297;-86
2022/05/26 09:27:30;;;;;;;;;0.00;0.00;;;;;20.16;52.63;101978.47;5110130;27;46320;-80
2022/05/26 09:30:23;;;;;;;;;0.00;0.00;;;;;20.28;53.47;102016.91;5110786;27;45691;-81
2022/05/26 09:32:48;;;;;;;;;0.00;0.00;;;;;19.91;53.19;101964.75;5092173;27;45079;-85
2022/05/26 09:35:19;;;;;;;;;0.25;0.00;;;;;20.17;53.94;102022.97;5111460;27;45218;-82
2022/05/26 09:37:50;;;;;;;;;1.00;1.00;;;;;19.92;52.94;101987.88;5110571;27;45452;-82
2022/05/26 09:40:29;;;;;;;;;1.00;1.00;;;;;20.02;53.17;102020.97;5110786;27;45073;-82
2022/05/26 09:43:17;;;;;;;;;0.00;0.00;;;;;19.95;53.31;102001.28;5108281;27;46289;-83
2022/05/26 09:45:53;;;;;;;;;0.00;0.00;;;;;19.95;52.62;101974.59;5122960;27;45613;-82
2022/05/26 09:48:30;;;;;;;;;0.75;0.00;;;;;20.29;52.31;102023.13;5126924;27;45375;-82
2022/05/26 09:51:24;;;;;;;;;0.00;0.00;;;;;20.49;52.50;102043.09;5121050;27;45774;-83
2022/05/26 09:53:52;;;;;;;;;0.00;0.00;;;;;20.42;52.00;102019.78;5129747;27;45800;-83
2022/05/26 09:56:29;;;;;;;;;1.00;0.00;;;;;20.63;52.25;102040.59;5131604;27;45291;-82
2022/05/26 09:58:54;;;;;;;;;0.25;0.25;;;;;20.84;52.89;102045.34;5127878;27;45973;-82
2022/05/26 10:01:26;;;;;;;;;1.00;1.00;;;;;21.05;51.69;102044.72;5111352;27;45467;-84
2022/05/26 10:04:17;;;;;;;;;0.75;0.50;;;;;21.11;51.01;102043.00;5111099;27;45736;-81
2022/05/26 10:06:53;;;;;;;;;0.75;0.75;;;;;20.67;51.98;101980.09;5102986;27;45464;-81
2022/05/26 10:09:33;;;;;;;;;1.50;1.00;;;;;20.59;51.24;101980.91;5112185;27;45851;-86
2022/05/26 10:12:08;;;;;;;;;1.00;1.00;;;;;20.45;51.48;101982.47;5091483;27;45412;-85
2022/05/26 10:14:56;;;;;;;;;1.00;1.00;;;;;20.73;52.02;102046.97;5092610;27;45302;-81
2022/05/26 10:17:43;;;;;;;;;0.00;0.00;;;;;20.64;51.90;102020.13;5107973;27;45474;-86
2022/05/26 10:20:34;;;;;;;;;0.00;0.00;;;;;20.80;51.16;102056.88;5109788;27;48137;-85
2022/05/26 10:23:31;;;;;;;;;1.00;0.00;;;;;20.38;51.25;102001.91;5116484;27;45312;-84
2022/05/26 10:26:15;;;;;;;;;1.75;1.00;;;;;20.76;51.55;102055.03;5102218;27;45605;-86
2022/05/26 10:28:46;;;;;;;;;1.00;1.00;;;;;20.81;51.68;102046.19;5112341;27;45364;-82
2022/05/26 10:31:35;;;;;;;;;1.00;1.00;;;;;20.82;52.16;102034.63;5090594;27;48576;-84
2022/05/26 10:34:43;;;;;;;;;0.00;0.00;;;;;21.08;51.96;102044.75;5114918;27;45492;-81
2022/05/26 10:37:58;;;;;;;;;0.00;0.00;;;;;20.87;51.51;102005.28;5062346;27;45719;-83
2022/05/26 10:40:42;;;;;;;;;0.25;0.25;;;;;20.94;51.24;102041.91;5104693;27;45440;-84
2022/05/26 10:43:14;;;;;;;;;5.00;5.00;;;;;20.91;51.44;102039.19;5088191;27;48368;-84
2022/05/26 10:45:44;;;;;;;;;1.00;1.00;;;;;21.03;51.04;102033.09;5099144;27;46004;-81
2022/05/26 10:48:20;;;;;;;;;1.00;1.00;;;;;21.47;50.79;102038.97;5085171;27;45571;-88
2022/05/26 10:50:51;;;;;;;;;0.00;0.00;;;;;21.50;50.05;102011.38;5080869;27;45766;-86
2022/05/26 10:53:37;;;;;;;;;2.75;2.00;;;;;21.62;50.04;102035.56;5100079;27;45401;-84
2022/05/26 10:56:13;;;;;;;;;0.75;0.75;;;;;21.55;50.04;102037.28;5101157;27;45729;-82
2022/05/26 10:58:44;;;;;;;;;2.00;0.25;;;;;21.22;50.21;101991.44;5103169;27;46666;-82
2022/05/26 11:01:28;;;;;;;;;1.00;1.00;;;;;21.53;50.49;102043.53;5098581;27;45453;-85
2022/05/26 11:04:03;;;;;;;;;1.00;1.00;;;;;21.39;51.39;101984.53;5105977;27;45521;-83
2022/05/26 11:06:34;;;;;;;;;1.00;1.00;;;;;21.84;50.02;102034.88;5102593;27;45542;-84
2022/05/26 11:09:12;;;;;;;;;0.00;0.00;;;;;21.88;49.81;102020.66;5099762;27;45555;-83
2022/05/26 11:11:59;;;;;;;;;0.00;0.00;;;;;21.70;49.96;101974.09;5110935;27;45484;-88
2022/05/26 11:17:30;;;;;;;;;0.00;0.00;;;;;22.04;49.30;102016.31;5119773;27;45230;-82
2022/05/26 11:20:02;;;;;;;;;0.00;0.00;;;;;22.04;48.85;101994.91;5118221;27;45324;-83
2022/05/26 11:22:28;;;;;;;;;1.00;1.00;;;;;21.71;48.95;101951.81;5126351;27;45163;-85
2022/05/26 11:24:56;;;;;;;;;0.00;0.00;;;;;22.05;48.95;102023.44;5128710;27;45657;-82
2022/05/26 11:27:28;;;;;;;;;0.75;0.75;;;;;21.85;49.38;101966.19;5124126;27;46033;-81
2022/05/26 11:29:58;;;;;;;;;1.25;1.00;;;;;22.07;48.84;101972.63;5121748;27;45300;-82
2022/05/26 11:38:11;;;;;;;;;0.00;0.00;;;;;22.19;48.30;102009.31;5128271;27;45017;-85
2022/05/26 11:40:52;;;;;;;;;0.25;0.25;;;;;22.06;48.91;101993.09;5128520;27;45431;-86
2022/05/26 11:43:29;;;;;;;;;0.00;0.00;;;;;22.42;48.49;102009.47;5129897;27;45052;-86
2022/05/26 11:45:56;;;;;;;;;0.25;0.25;;;;;22.61;47.94;102003.28;5118983;27;45756;-83
2022/05/26 11:48:30;;;;;;;;;0.00;0.00;;;;;22.85;47.85;102007.88;5112396;27;45428;-83
2022/05/26 11:50:57;;;;;;;;;0.00;0.00;;;;;22.94;47.57;102017.78;5114516;27;45568;-82
2022/05/26 11:53:50;;;;;;;;;0.25;0.25;;;;;22.98;47.44;101998.16;5115703;27;45709;-83
2022/05/26 11:56:29;;;;;;;;;0.50;0.50;;;;;23.00;46.87;102007.06;5114592;27;45535;-82
2022/05/26 11:59:28;;;;;;;;;0.00;0.00;;;;;23.10;46.43;102000.84;5119260;27;45181;-84
2022/05/26 12:02:00;;;;;;;;;1.00;1.00;;;;;23.11;46.43;102002.66;5114757;27;45120;-84
2022/05/26 12:04:32;;;;;;;;;1.00;0.00;;;;;22.97;46.72;101991.88;5133072;27;45015;-82
2022/05/26 12:07:03;;;;;;;;;0.75;0.75;;;;;22.95;46.26;101985.59;5130704;27;45911;-85
2022/05/26 12:09:34;;;;;;;;;0.25;0.25;;;;;23.10;47.02;102015.19;5132602;27;45712;-83
2022/05/26 12:12:12;;;;;;;;;1.00;1.00;;;;;23.12;46.66;102021.44;5110218;27;45137;-82
2022/05/26 12:14:43;;;;;;;;;1.00;0.50;;;;;23.13;46.17;102015.19;5132222;27;45263;-83
2022/05/26 12:17:30;;;;;;;;;0.00;0.00;;;;;23.29;45.96;102020.56;5111423;27;47385;-83
2022/05/26 12:19:56;;;;;;;;;1.00;1.00;;;;;23.12;45.69;101973.16;5122154;27;45040;-82
2022/05/26 12:22:31;;;;;;;;;0.00;0.00;;;;;23.28;47.14;101965.13;5112182;27;45296;-83